Main page
METAR-TAF:

METAR-TAF

Airports :

Honiara International Airport

Honiara, Guadalcanal, Solomon Islands

latitude: 09-25S, longitude: 160-03E, elevation: 8 m

Current weather observation

The report was made 2 hours and 6 minutes ago, at 18:00 UTC
Calm wind
Temperature 24°C
Humidity 100%
Pressure 1006 hPa
Visibility 10 km or more
Few clouds at a height of 1400 ft
Scattered clouds at a height of 10000 ft

METAR: AGGH 211800Z 00000KT 9999 FEW014 SCT100 24/24 Q1006

Time: 07:06 (20:06 UTC)

Forecast

The report was made 2 hours and 56 minutes ago, at 17:10 UTC
Forecast valid from 21 at 18 UTC to 22 at 18 UTC
Wind 8 kt from the West/Northwest
Visibility 10 km or more
Scattered clouds at a height of 1800 ft
Broken clouds at a height of 10000 ft
Probability 40%
between IN and TE UTC
Visibility: 1007 m
Broken clouds at a height of 1500 ft
Few clouds at a height of 1600 ft, Cumulonimbus.

TAF: AGGH 211710Z 2118/2218 29008KT 9999 SCT018 BKN100 PROB40 INTER 2118/2122 5000 TSSH BKN015 FEW016CB T 24 26 30 31 Q 1007 1009 1009 1007

Weather observations and forecasts of more than 4000 airports (METAR and TAF reports).

The available stations are represented by yellow and red dots on the map.

Hover mouse over dot to see the name of the station.

Then click to see weather observations and forecasts.

To change the map : click on the green buttons with a black cross to zoom in, on the green button with a dash to zoom out, or on the green arrows for adjacent maps.


METAR-TAF: